TimeCST,TemperatureF,Dew PointF,Humidity,Sea Level PressureIn,VisibilityMPH,Wind Direction,Wind SpeedMPH,Gust SpeedMPH,PrecipitationIn,Events,Conditions,WindDirDegrees,DateUTC
12:52 AM,32.0,28.9,88,30.45,5.0,Calm,Calm,-,N/A,,Clear,0,2012-11-17 06:52:00
1:45 AM,30.2,28.4,93,30.44,2.5,Calm,Calm,-,N/A,,Clear,0,2012-11-17 07:45:00
1:52 AM,30.9,30.0,96,30.45,2.5,Calm,Calm,-,N/A,,Clear,0,2012-11-17 07:52:00
2:27 AM,30.2,28.4,93,30.44,0.8,Calm,Calm,-,N/A,,Mist,0,2012-11-17 08:27:00
2:38 AM,30.2,28.4,93,30.44,0.2,Calm,Calm,-,N/A,Fog,Light Freezing Fog,0,2012-11-17 08:38:00
2:52 AM,30.0,28.9,96,30.46,0.5,Calm,Calm,-,N/A,Fog,Light Freezing Fog,0,2012-11-17 08:52:00
2:57 AM,30.2,28.4,93,30.45,2.0,Calm,Calm,-,N/A,,Scattered Clouds,0,2012-11-17 08:57:00
3:07 AM,30.2,28.4,93,30.45,1.0,Calm,Calm,-,N/A,,Mist,0,2012-11-17 09:07:00
3:11 AM,28.4,28.4,100,30.45,0.8,Calm,Calm,-,N/A,,Mist,0,2012-11-17 09:11:00
3:22 AM,30.2,28.4,93,30.45,0.2,Calm,Calm,-,N/A,Fog,Light Freezing Fog,0,2012-11-17 09:22:00
3:52 AM,28.9,27.0,92,30.47,1.0,Calm,Calm,-,N/A,,Mist,0,2012-11-17 09:52:00
3:58 AM,28.4,26.6,93,30.45,2.5,Calm,Calm,-,N/A,,Clear,0,2012-11-17 09:58:00
4:06 AM,28.4,26.6,93,30.45,3.0,Calm,Calm,-,N/A,,Clear,0,2012-11-17 10:06:00
4:23 AM,32.0,30.2,93,30.46,2.5,Calm,Calm,-,N/A,,Clear,0,2012-11-17 10:23:00
4:36 AM,32.0,30.2,93,30.46,3.0,Calm,Calm,-,N/A,,Clear,0,2012-11-17 10:36:00
4:52 AM,30.9,28.9,92,30.48,2.0,Calm,Calm,-,N/A,,Clear,0,2012-11-17 10:52:00
5:30 AM,30.2,28.4,93,30.45,4.0,Calm,Calm,-,N/A,,Clear,0,2012-11-17 11:30:00
5:52 AM,30.9,30.0,96,30.48,4.0,Calm,Calm,-,N/A,,Clear,0,2012-11-17 11:52:00
6:52 AM,30.9,30.0,96,30.48,5.0,Calm,Calm,-,N/A,,Clear,0,2012-11-17 12:52:00
7:52 AM,33.1,30.0,89,30.49,5.0,Calm,Calm,-,N/A,,Clear,0,2012-11-17 13:52:00
8:52 AM,37.0,32.0,82,30.50,7.0,SSE,4.6,-,N/A,,Clear,150,2012-11-17 14:52:00
9:52 AM,44.1,34.0,68,30.50,10.0,SSE,5.8,-,N/A,,Clear,150,2012-11-17 15:52:00
10:52 AM,51.1,36.0,56,30.48,10.0,SSE,8.1,-,N/A,,Clear,160,2012-11-17 16:52:00
11:52 AM,54.0,35.1,49,30.45,10.0,SSE,11.5,-,N/A,,Clear,160,2012-11-17 17:52:00
12:52 PM,55.0,34.0,45,30.43,10.0,SSE,11.5,-,N/A,,Clear,150,2012-11-17 18:52:00
1:52 PM,55.0,33.1,43,30.41,10.0,South,10.4,-,N/A,,Clear,170,2012-11-17 19:52:00
2:52 PM,55.9,33.1,42,30.40,10.0,SSE,10.4,-,N/A,,Clear,150,2012-11-17 20:52:00
3:52 PM,54.0,34.0,47,30.40,10.0,SE,11.5,-,N/A,,Clear,140,2012-11-17 21:52:00
4:52 PM,48.9,33.1,54,30.38,10.0,SE,6.9,-,N/A,,Clear,130,2012-11-17 22:52:00
5:52 PM,45.0,30.9,58,30.39,10.0,SE,3.5,-,N/A,,Clear,130,2012-11-17 23:52:00
6:52 PM,42.1,30.9,65,30.40,10.0,SSE,3.5,-,N/A,,Clear,160,2012-11-18 00:52:00
7:52 PM,39.0,30.9,73,30.40,10.0,SSE,3.5,-,N/A,,Clear,150,2012-11-18 01:52:00
8:52 PM,37.9,30.0,73,30.40,10.0,SSE,3.5,-,N/A,,Clear,150,2012-11-18 02:52:00
9:52 PM,37.0,30.0,76,30.40,10.0,SE,3.5,-,N/A,,Clear,140,2012-11-18 03:52:00
10:52 PM,37.9,30.0,73,30.39,10.0,SE,6.9,-,N/A,,Clear,130,2012-11-18 04:52:00
11:52 PM,37.9,30.9,76,30.39,9.0,SE,5.8,-,N/A,,Clear,130,2012-11-18 05:52:00